CST,Max TemperatureF,Mean TemperatureF,Min TemperatureF,Max Dew PointF,MeanDew PointF,Min DewpointF,Max Humidity, Mean Humidity, Min Humidity, Max Sea Level PressureIn, Mean Sea Level PressureIn, Min Sea Level PressureIn, Max VisibilityMiles, Mean VisibilityMiles, Min VisibilityMiles, Max Wind SpeedMPH, Mean Wind SpeedMPH, Max Gust SpeedMPH,PrecipitationIn, CloudCover, Events, WindDirDegrees
2012-1-1,52,42,32,40,25,9,88,53,28,30.33,30.05,29.68,10,10,10,26,19,39,0.00,2,Rain,275
2012-1-2,32,26,20,16,11,5,63,51,35,30.50,30.38,30.16,10,10,10,28,17,37,0.00,2,,300
2012-1-3,35,24,14,27,10,5,80,55,28,30.52,30.37,30.14,10,10,10,17,6,,0.00,0,,221
2012-1-4,50,40,30,29,21,13,87,61,40,30.19,30.11,30.05,10,10,10,17,10,,0.00,0,,217
2012-1-5,62,46,29,30,28,26,88,66,26,30.14,30.03,29.88,10,10,10,15,6,,0.00,0,,205
2012-1-6,66,52,37,32,29,25,68,54,21,29.91,29.85,29.75,10,10,10,18,8,16,0.00,0,,227
2012-1-7,50,42,34,29,27,23,81,59,35,30.24,30.09,29.92,10,10,10,13,5,,0.00,0,,319
2012-1-8,44,36,28,34,30,26,94,81,61,30.32,30.27,30.24,10,10,10,9,2,,0.00,4,,30
2012-1-9,50,37,24,32,27,23,97,72,35,30.26,30.19,30.10,10,10,7,12,3,,0.00,1,,259
2012-1-10,59,44,28,30,27,23,88,71,31,30.12,29.98,29.75,10,10,1,9,3,,0.00,0,,199
2012-1-11,53,44,35,43,36,30,98,81,62,29.75,29.63,29.54,10,8,2,15,4,22,0.01,5,Rain,337
2012-1-12,37,26,15,33,19,9,93,82,63,29.89,29.75,29.65,10,5,0,26,18,34,0.00,8,Snow,283
2012-1-13,21,14,6,12,9,4,92,77,58,30.15,30.03,29.89,10,10,7,25,15,29,0.00,5,Snow,282
2012-1-14,35,21,7,25,15,5,100,85,48,30.30,30.16,30.03,10,8,2,14,4,,0.00,3,Snow,77
2012-1-15,42,29,16,30,24,16,100,80,53,30.36,30.22,30.03,10,7,0,23,7,29,0.00,0,Fog,146
2012-1-16,66,52,38,56,44,30,86,71,56,30.03,29.83,29.68,10,10,10,23,14,30,0.00,2,,173
2012-1-17,61,42,21,57,35,15,100,82,65,30.36,29.96,29.60,10,9,2,26,13,36,0.59,5,Rain-Thunderstorm,278
2012-1-18,32,24,15,20,15,11,86,71,44,30.37,30.22,29.98,10,10,10,16,6,,0.00,0,,197
2012-1-19,33,25,17,25,19,9,80,72,60,30.16,30.01,29.91,10,10,10,15,8,16,0.00,3,,103
2012-1-20,28,22,15,27,15,6,97,77,63,30.16,30.06,29.88,10,9,3,16,7,,0.00,4,Rain,40
2012-1-21,32,26,21,28,23,19,99,92,75,30.23,30.10,30.01,10,8,4,16,9,20,0.00,8,,31
2012-1-22,51,40,28,52,39,28,100,99,97,30.03,29.76,29.43,10,3,0,18,13,24,0.01,7,Fog-Rain-Thunderstorm,142
2012-1-23,52,42,30,51,38,27,100,82,65,30.04,29.67,29.42,10,9,7,36,15,43,0.05,6,,249
2012-1-24,41,32,24,36,28,23,93,81,61,30.34,30.30,30.21,10,10,7,9,7,,0.00,1,,88
2012-1-25,33,32,30,34,31,28,100,94,87,30.32,30.18,29.96,10,5,2,12,6,,0.18,4,Rain-Snow,84
2012-1-26,37,35,33,37,34,33,100,100,98,29.96,29.84,29.75,10,4,1,12,3,,0.17,7,Rain,326
2012-1-27,39,36,32,36,33,30,99,88,70,30.03,29.94,29.80,10,8,2,13,7,18,0.06,7,Rain,300
2012-1-28,41,36,31,36,27,14,100,76,36,30.31,30.18,30.00,10,9,2,17,11,23,0.03,3,Rain-Snow,257
2012-1-29,44,36,28,25,20,16,83,57,31,30.26,30.21,30.16,10,10,10,18,11,24,0.00,0,,220
2012-1-30,62,46,30,36,30,24,83,62,30,30.19,30.08,29.97,10,10,10,21,8,,0.00,2,,164
2012-1-31,62,52,42,53,40,30,91,62,48,30.02,29.98,29.90,10,10,10,18,10,,0.00,4,Rain,188